EGGP

Liverpool John Lennon Airport

Liverpool, United Kingdom

EGGP 191250Z VRB02KT 9999 SCT020 16/11 Q1021

Observed Flight Rules
Sep-19 @ 12:50 UTC (43 minutes ago)
 
Visual Flight Rules
Wind Visibility Clouds
Variable at 2 knots 10,000+ meters
  • Scattered at 2,000' AGL
Temperatures Readings
Current 16°C / 61°F
Dewpoint 11°C / 52°F
Humidity 72%
Altimeter 30.15" Hg
Pressure 1021 hPa
Elevation 26
Observed Flight Rules
Sep-19 @ 12:50 UTC
(43 minutes ago)
 
VFR
Wind Visibility
Variable at 2 knots 10,000+ meters
Clouds
  • Scattered at 2,000' AGL
Temperature Dewpoint
16°C / 61°F 11°C / 52°F
Humidity Altimeter Pressure
72% 30.15" Hg 1021 hPa